Time;durP1;ratioP1;P1;durP2;ratioP2;P2;SDS_P1;SDS_P2;PMS_P1;PMS_P2;Temp;Humidity;BMP_temperature;BMP_pressure;BME280_temperature;BME280_humidity;BME280_pressure;Samples;Min_cycle;Max_cycle;Signal;HPM_P1;HPM_P2
2019/06/30 00:01:33;;;;;;;6.7;3.9;;;;;;;19.87;61.73828;940.2877;;;;
2019/06/30 00:03:56;;;;;;;8.3;3.9;;;;;;;19.47;62.91797;940.2781;;;;
2019/06/30 00:06:21;;;;;;;6.6;4;;;;;;;19.68;63.15723;940.2125;;;;
2019/06/30 00:08:48;;;;;;;6.9;3.8;;;;;;;20.04;61.07324;940.2355;;;;
2019/06/30 00:11:15;;;;;;;4.7;3.6;;;;;;;20.1;60.90625;940.2544;;;;
2019/06/30 00:13:43;;;;;;;5.8;4;;;;;;;19.88;61.63379;940.3036;;;;
2019/06/30 00:16:06;;;;;;;5;3.8;;;;;;;19.58;62.78027;940.3502;;;;
2019/06/30 00:18:40;;;;;;;6.1;4;;;;;;;19.81;61.92773;940.2346;;;;
2019/06/30 00:20:56;;;;;;;7.4;3.7;;;;;;;19.63;62.58984;940.2413;;;;
2019/06/30 00:23:24;;;;;;;7.1;3.8;;;;;;;19.76;62.07129;940.2416;;;;
2019/06/30 00:25:46;;;;;;;6.3;3.8;;;;;;;20.04;61.27051;940.2017;;;;
2019/06/30 00:28:11;;;;;;;5.9;3.7;;;;;;;20.13;60.96875;940.1937;;;;
2019/06/30 00:30:42;;;;;;;5.9;3.7;;;;;;;20.17;61.0791;940.1926;;;;
2019/06/30 00:33:15;;;;;;;8.3;3.8;;;;;;;20.24;60.79688;940.193;;;;
2019/06/30 00:35:36;;;;;;;12.7;3.9;;;;;;;20.12;60.83984;940.2425;;;;
2019/06/30 00:38:01;;;;;;;10.1;4.1;;;;;;;19.56;62.62793;940.197;;;;
2019/06/30 00:40:25;;;;;;;11.9;3.9;;;;;;;19.57;62.75684;940.213;;;;
2019/06/30 00:42:53;;;;;;;13.7;4;;;;;;;19.56;62.70801;940.1852;;;;
2019/06/30 00:45:16;;;;;;;8.1;3.9;;;;;;;19.77;62.13086;940.176;;;;
2019/06/30 00:47:41;;;;;;;7.7;3.4;;;;;;;19.22;63.73145;940.1972;;;;
2019/06/30 00:50:05;;;;;;;6.4;3.6;;;;;;;19.15;64.02539;940.1234;;;;
2019/06/30 00:56:00;;;;;;;6.7;3.5;;;;;;;19.56;62.68457;940.0986;;;;
2019/06/30 00:58:25;;;;;;;6.7;3.7;;;;;;;19.22;63.89453;940.068;;;;
2019/06/30 01:00:57;;;;;;;7.8;3.8;;;;;;;19.37;63.61426;940.0488;;;;
2019/06/30 01:03:15;;;;;;;5.6;3.5;;;;;;;19.33;63.51465;939.9891;;;;
2019/06/30 01:05:43;;;;;;;7.5;3.8;;;;;;;19.61;63.00684;939.9933;;;;
2019/06/30 01:08:09;;;;;;;8.3;3.6;;;;;;;19.52;62.94727;939.957;;;;
2019/06/30 01:10:35;;;;;;;5.4;3.4;;;;;;;19.26;63.93652;939.9422;;;;
2019/06/30 01:13:00;;;;;;;6.3;4.1;;;;;;;19.6;62.90039;939.9774;;;;
2019/06/30 01:15:24;;;;;;;8.4;3.9;;;;;;;19.82;62.02148;939.9363;;;;
2019/06/30 01:17:47;;;;;;;7.2;3.7;;;;;;;19.68;62.53906;939.8983;;;;
2019/06/30 01:20:17;;;;;;;6.5;3.9;;;;;;;19.64;63.12891;939.9808;;;;
2019/06/30 01:22:42;;;;;;;5.3;3.4;;;;;;;19.42;63.3291;939.9953;;;;
2019/06/30 01:25:05;;;;;;;7.8;4.1;;;;;;;19.47;63.33691;939.9679;;;;
2019/06/30 01:27:29;;;;;;;8.5;4.2;;;;;;;19.21;64.34766;940.0003;;;;
2019/06/30 01:29:59;;;;;;;7.7;3.8;;;;;;;18.99;65.10742;939.9883;;;;
2019/06/30 01:32:28;;;;;;;7.3;4;;;;;;;19.37;63.87012;939.9803;;;;
2019/06/30 01:34:55;;;;;;;7;3.9;;;;;;;19.58;62.91992;939.9714;;;;
2019/06/30 01:37:20;;;;;;;4.4;3.5;;;;;;;19.47;63.37207;939.9082;;;;
2019/06/30 01:39:47;;;;;;;6.6;3.9;;;;;;;19.57;63.01367;939.8948;;;;
2019/06/30 01:42:14;;;;;;;5.3;3.7;;;;;;;19.71;62.48438;939.8984;;;;
2019/06/30 01:44:37;;;;;;;4.9;3.9;;;;;;;19.59;63.51855;939.9217;;;;
2019/06/30 01:47:06;;;;;;;7.2;4;;;;;;;19.64;62.81348;939.9072;;;;
2019/06/30 01:49:28;;;;;;;5.9;3.6;;;;;;;19.27;63.90234;939.8677;;;;
2019/06/30 01:51:55;;;;;;;5.9;3.5;;;;;;;19.47;63.48828;939.9679;;;;
2019/06/30 01:54:17;;;;;;;6.3;4.2;;;;;;;19.53;63.92773;939.9691;;;;
2019/06/30 01:56:42;;;;;;;6;3.6;;;;;;;19.49;63.31641;939.8655;;;;
2019/06/30 01:59:15;;;;;;;4.7;3.8;;;;;;;19.64;62.97754;939.9072;;;;
2019/06/30 02:01:36;;;;;;;5.2;3.7;;;;;;;19.54;63.06738;939.9673;;;;
2019/06/30 02:04:01;;;;;;;5.2;4.2;;;;;;;19.54;63.1377;939.9803;;;;
2019/06/30 02:06:31;;;;;;;8.8;4.1;;;;;;;19.62;62.68262;939.9012;;;;
2019/06/30 02:09:00;;;;;;;6.7;4;;;;;;;19.51;63.68066;939.8248;;;;
2019/06/30 02:11:25;;;;;;;6.3;4;;;;;;;19.52;63.32129;939.8189;;;;
2019/06/30 02:13:48;;;;;;;6.1;4;;;;;;;19.47;64.0127;939.8427;;;;
2019/06/30 02:16:13;;;;;;;5.5;3.9;;;;;;;19.57;63.24609;939.7785;;;;
2019/06/30 02:18:38;;;;;;;5.8;3.8;;;;;;;19.25;64.30664;939.8318;;;;
2019/06/30 02:21:07;;;;;;;8;3.9;;;;;;;19.21;64.73242;939.8364;;;;
2019/06/30 02:23:28;;;;;;;5.9;3.7;;;;;;;18.97;65.44141;939.7379;;;;
2019/06/30 02:25:56;;;;;;;8.1;3.9;;;;;;;18.9;65.81445;939.82;;;;
2019/06/30 02:28:23;;;;;;;7.6;3.6;;;;;;;18.99;65.46777;939.8035;;;;
2019/06/30 02:30:43;;;;;;;5.4;3.5;;;;;;;18.95;65.75293;939.8908;;;;
2019/06/30 02:33:09;;;;;;;5.6;3.7;;;;;;;18.46;67.25977;939.8397;;;;
2019/06/30 02:35:42;;;;;;;5.9;3.6;;;;;;;18.31;68.14355;939.8622;;;;
2019/06/30 02:38:02;;;;;;;5.2;3.9;;;;;;;18.41;67.8457;939.8619;;;;
2019/06/30 02:40:37;;;;;;;4.7;4;;;;;;;18.11;69.00879;939.8814;;;;
2019/06/30 02:42:58;;;;;;;6.2;3.6;;;;;;;18.27;68.39355;939.863;;;;
2019/06/30 02:45:21;;;;;;;5.4;3.8;;;;;;;18.52;67.44434;939.8837;;;;
2019/06/30 02:47:44;;;;;;;6.5;3.8;;;;;;;18.6;66.98145;939.9378;;;;
2019/06/30 02:50:10;;;;;;;5.3;3.9;;;;;;;18.62;66.83301;939.9183;;;;
2019/06/30 02:52:41;;;;;;;6.1;3.8;;;;;;;18.22;68.33984;939.9417;;;;
2019/06/30 02:55:00;;;;;;;5.3;3.9;;;;;;;18.64;66.91699;939.9545;;;;
2019/06/30 02:57:27;;;;;;;4.1;3.7;;;;;;;18.72;66.63867;939.9103;;;;
2019/06/30 02:59:54;;;;;;;6.9;3.7;;;;;;;18.82;65.83789;939.9713;;;;
2019/06/30 03:02:19;;;;;;;5.2;3.6;;;;;;;18.91;65.6543;939.9512;;;;
2019/06/30 03:04:46;;;;;;;4.6;3.8;;;;;;;19;65.66797;940.0003;;;;
2019/06/30 03:07:19;;;;;;;5.3;3.7;;;;;;;19.02;65.38965;939.9814;;;;
2019/06/30 03:09:36;;;;;;;7.6;3.9;;;;;;;18.99;65.22266;940.0151;;;;
2019/06/30 03:12:03;;;;;;;5.9;3.7;;;;;;;18.92;65.31738;940.0584;;;;
2019/06/30 03:14:27;;;;;;;6.6;3.8;;;;;;;19.05;65.25391;940.0812;;;;
2019/06/30 03:16:54;;;;;;;8.1;4;;;;;;;19.08;65.1543;940.0645;;;;
2019/06/30 03:19:18;;;;;;;7.4;3.6;;;;;;;18.91;65.65332;940.1071;;;;
2019/06/30 03:21:42;;;;;;;7.3;3.6;;;;;;;18.76;66.21289;940.0386;;;;
2019/06/30 03:24:07;;;;;;;6.5;4;;;;;;;18.32;67.83203;940.024;;;;
2019/06/30 03:26:32;;;;;;;8.1;4;;;;;;;18.45;67.64355;940.0381;;;;
2019/06/30 03:29:04;;;;;;;6.7;4;;;;;;;18.74;66.83789;940.0722;;;;
2019/06/30 03:31:26;;;;;;;16.7;5.2;;;;;;;18.88;65.88184;940.0633;;;;
2019/06/30 03:33:49;;;;;;;12.7;4.6;;;;;;;18.96;65.70801;940.0875;;;;
2019/06/30 03:36:13;;;;;;;7.4;4.6;;;;;;;18.99;65.93262;940.041;;;;
2019/06/30 03:38:46;;;;;;;8;4.2;;;;;;;18.93;65.93652;940.13;;;;
2019/06/30 03:41:06;;;;;;;7.3;4.4;;;;;;;18.98;65.9668;940.1671;;;;
2019/06/30 03:43:32;;;;;;;7.4;4;;;;;;;18.82;65.96582;940.1351;;;;
2019/06/30 03:46:00;;;;;;;8.8;4.2;;;;;;;18.73;66.21973;940.1465;;;;
2019/06/30 03:48:22;;;;;;;5.8;4.1;;;;;;;18.66;66.62891;940.18;;;;
2019/06/30 03:50:48;;;;;;;4.8;3.8;;;;;;;18.79;66.22949;940.2244;;;;
2019/06/30 03:53:12;;;;;;;5;3.6;;;;;;;18.74;65.96484;940.2053;;;;
2019/06/30 03:55:43;;;;;;;6.4;3.6;;;;;;;18.65;66.5459;940.2464;;;;
2019/06/30 03:58:06;;;;;;;6.9;3.6;;;;;;;18.54;66.95996;940.2502;;;;
2019/06/30 04:02:34;;;;;;;6.2;4.5;;;;;;;18.77;67.69336;940.2869;;;;
2019/06/30 04:05:04;;;;;;;6.4;4.1;;;;;;;18.44;67.29395;940.2971;;;;
2019/06/30 04:07:28;;;;;;;6.2;4.1;;;;;;;18.64;67.74121;940.2653;;;;
2019/06/30 04:09:58;;;;;;;6.3;4.1;;;;;;;18.77;66.88965;940.2829;;;;
2019/06/30 04:12:19;;;;;;;5.4;4.1;;;;;;;18.82;66.81445;940.3716;;;;
2019/06/30 04:14:46;;;;;;;7.6;4.1;;;;;;;18.87;66.62402;940.3403;;;;
2019/06/30 04:17:11;;;;;;;7.7;4.3;;;;;;;18.91;66.35254;940.399;;;;
2019/06/30 04:19:34;;;;;;;7.8;3.9;;;;;;;19.03;65.83496;940.2769;;;;
2019/06/30 04:22:03;;;;;;;6.3;4;;;;;;;19.13;65.26855;940.4531;;;;
2019/06/30 04:24:24;;;;;;;6.9;4.1;;;;;;;19.11;65.24121;940.4819;;;;
2019/06/30 04:26:51;;;;;;;5.7;3.6;;;;;;;19.27;64.75293;940.5524;;;;
2019/06/30 04:29:18;;;;;;;5.2;3.8;;;;;;;19.14;65.90918;940.5208;;;;
2019/06/30 04:31:44;;;;;;;6.8;3.6;;;;;;;19.2;65.8125;940.5617;;;;
2019/06/30 04:34:10;;;;;;;5.4;4.3;;;;;;;19.22;65.97949;940.576;;;;
2019/06/30 04:36:42;;;;;;;6.5;4.1;;;;;;;19.21;65.67383;940.5131;;;;
2019/06/30 04:39:03;;;;;;;6.9;3.9;;;;;;;19.2;65.93066;940.5478;;;;
2019/06/30 04:41:27;;;;;;;7.3;4;;;;;;;19.13;66.58301;940.5058;;;;
2019/06/30 04:43:52;;;;;;;5.9;4;;;;;;;19.17;66.37891;940.5517;;;;
2019/06/30 04:46:19;;;;;;;7.2;4.2;;;;;;;19.1;66.31152;940.5435;;;;
2019/06/30 04:48:48;;;;;;;6.8;4;;;;;;;19.11;66.37012;940.5256;;;;
2019/06/30 04:51:10;;;;;;;7.7;4.2;;;;;;;19.22;66.69043;940.5549;;;;
2019/06/30 04:53:41;;;;;;;7.9;4.2;;;;;;;19.18;66.05469;940.5298;;;;
2019/06/30 04:56:01;;;;;;;6.9;4.2;;;;;;;19.1;66.66113;940.4917;;;;
2019/06/30 04:58:26;;;;;;;8;4.3;;;;;;;19.15;67.30762;940.5764;;;;
2019/06/30 05:00:52;;;;;;;9.7;4.4;;;;;;;19.2;66.9541;940.514;;;;
2019/06/30 05:03:20;;;;;;;6.9;4.3;;;;;;;19.22;67.42383;940.6323;;;;
2019/06/30 05:05:43;;;;;;;9.1;4.1;;;;;;;19.48;65.85547;940.5733;;;;
2019/06/30 05:08:10;;;;;;;8.6;4.1;;;;;;;20.57;63.32031;940.5897;;;;
2019/06/30 05:10:40;;;;;;;8.4;4.1;;;;;;;22.01;57.91113;940.5628;;;;
2019/06/30 05:13:05;;;;;;;6;3.4;;;;;;;23.17;55.30078;940.5641;;;;
2019/06/30 05:15:32;;;;;;;5.9;3.5;;;;;;;23.7;55.26074;940.6409;;;;
2019/06/30 05:18:00;;;;;;;7.5;3.5;;;;;;;24.59;52.41309;940.6033;;;;
2019/06/30 05:20:22;;;;;;;7.1;3.2;;;;;;;25.81;47.68555;940.5826;;;;
2019/06/30 05:22:45;;;;;;;5.5;3.4;;;;;;;26.56;46.5332;940.4998;;;;
2019/06/30 05:25:13;;;;;;;6.2;3.1;;;;;;;26.86;47.39453;940.5754;;;;
2019/06/30 05:27:38;;;;;;;5.6;2.9;;;;;;;27.64;45.3291;940.5872;;;;
2019/06/30 05:30:04;;;;;;;4;3;;;;;;;28.53;43.41992;940.563;;;;
2019/06/30 05:32:27;;;;;;;6.1;3.1;;;;;;;29.16;39.64648;940.5552;;;;
2019/06/30 05:34:50;;;;;;;8.3;3;;;;;;;29.67;39.85742;940.5545;;;;
2019/06/30 05:37:15;;;;;;;5.8;3.2;;;;;;;30.13;37.36816;940.5828;;;;
2019/06/30 05:39:40;;;;;;;5.8;2.7;;;;;;;30.65;37.36328;940.5066;;;;
2019/06/30 05:42:06;;;;;;;5;2.6;;;;;;;31.1;37.31641;940.5223;;;;
2019/06/30 05:44:31;;;;;;;3.5;2.8;;;;;;;31.01;37.71582;940.4313;;;;
2019/06/30 05:46:59;;;;;;;5.5;3.1;;;;;;;31.19;40.0166;940.5197;;;;
2019/06/30 05:49:21;;;;;;;5.7;3;;;;;;;31.11;41.0127;940.4986;;;;
2019/06/30 05:51:48;;;;;;;8;3.1;;;;;;;31.51;40.15137;940.4507;;;;
2019/06/30 05:54:12;;;;;;;5.7;3;;;;;;;31.63;39.6123;940.4238;;;;
2019/06/30 05:56:39;;;;;;;5.4;2.7;;;;;;;31.87;40.72168;940.5066;;;;
2019/06/30 05:59:05;;;;;;;7.6;2.9;;;;;;;31.91;38.59375;940.4456;;;;
2019/06/30 06:01:28;;;;;;;6.4;3;;;;;;;32.33;38.47266;940.4703;;;;
2019/06/30 06:03:53;;;;;;;6.5;3;;;;;;;32.79;37.73242;940.5211;;;;
2019/06/30 06:06:19;;;;;;;14;4.1;;;;;;;33.37;37.07031;940.4705;;;;
2019/06/30 06:08:49;;;;;;;7.4;3.1;;;;;;;33.56;38.09668;940.5266;;;;
2019/06/30 06:11:10;;;;;;;6.5;3.1;;;;;;;33.74;36.57227;940.5339;;;;
2019/06/30 06:13:34;;;;;;;5;2.8;;;;;;;33.33;36.51563;940.5514;;;;
2019/06/30 06:15:58;;;;;;;6.1;3;;;;;;;33.36;38.87305;940.5722;;;;
2019/06/30 06:18:26;;;;;;;9;2.9;;;;;;;33.81;35.7959;940.5119;;;;
2019/06/30 06:20:53;;;;;;;6.1;2.9;;;;;;;34.17;35.125;940.4945;;;;
2019/06/30 06:23:21;;;;;;;4.7;2.4;;;;;;;34.52;34.70703;940.4861;;;;
2019/06/30 06:26:15;;;;;;;4.8;2.6;;;;;;;34.88;33.49121;940.4149;;;;
2019/06/30 06:28:49;;;;;;;6.1;2.6;;;;;;;35.07;32.7207;940.4448;;;;
2019/06/30 06:31:13;;;;;;;7.7;2.8;;;;;;;35.51;32.80078;940.4439;;;;
2019/06/30 06:33:39;;;;;;;7.2;2.9;;;;;;;36.17;32.14648;940.4045;;;;
2019/06/30 06:35:59;;;;;;;3.8;2.5;;;;;;;36.04;30.19043;940.4217;;;;
2019/06/30 06:38:26;;;;;;;7.3;2.6;;;;;;;36.79;32.20215;940.4922;;;;
2019/06/30 06:40:53;;;;;;;4.5;2.7;;;;;;;37.21;30.75293;940.5058;;;;
2019/06/30 06:43:15;;;;;;;6.5;2.6;;;;;;;37.52;29.35449;940.4718;;;;
2019/06/30 06:46:13;;;;;;;5;2.4;;;;;;;38.98;24.10645;940.4136;;;;
2019/06/30 06:48:09;;;;;;;4.4;2.4;;;;;;;39.04;26.15332;940.4008;;;;
2019/06/30 06:50:37;;;;;;;5.2;2.3;;;;;;;39.71;24.93652;940.4136;;;;
2019/06/30 06:53:00;;;;;;;4.6;2.3;;;;;;;39.88;23.50684;940.405;;;;
2019/06/30 06:55:25;;;;;;;4.6;2.3;;;;;;;39.93;21.49707;940.4031;;;;
2019/06/30 06:57:56;;;;;;;5.9;2.4;;;;;;;39.72;21.36523;940.412;;;;
2019/06/30 07:00:15;;;;;;;5.5;2.5;;;;;;;40.12;20.99414;940.4377;;;;
2019/06/30 07:02:41;;;;;;;5;2.3;;;;;;;39.73;24.0957;940.4277;;;;
2019/06/30 07:05:05;;;;;;;5.6;2.5;;;;;;;39.59;25.07617;940.363;;;;
2019/06/30 07:07:34;;;;;;;4.5;2.4;;;;;;;38.96;22.93652;940.3117;;;;
2019/06/30 07:10:15;;;;;;;3.8;2.5;;;;;;;40.16;21.00781;940.3321;;;;
2019/06/30 07:12:48;;;;;;;10.5;2.6;;;;;;;39.43;24.36035;940.3467;;;;
2019/06/30 07:15:07;;;;;;;4;2.5;;;;;;;40.46;22.35156;940.3627;;;;
2019/06/30 07:17:34;;;;;;;4.6;2.6;;;;;;;40.37;25.09375;940.3668;;;;
2019/06/30 07:20:03;;;;;;;4;2.4;;;;;;;40.58;23.11523;940.3709;;;;
2019/06/30 07:22:22;;;;;;;4.9;2.5;;;;;;;40.5;24.96582;940.345;;;;
2019/06/30 07:24:58;;;;;;;8.1;2.6;;;;;;;41.16;20.85742;940.384;;;;
2019/06/30 07:27:15;;;;;;;5.2;2.4;;;;;;;40.9;22.70313;940.375;;;;
2019/06/30 07:29:38;;;;;;;5.5;2.7;;;;;;;41.36;22.00391;940.3642;;;;
2019/06/30 07:32:05;;;;;;;3.5;2.5;;;;;;;41.04;21.78125;940.3073;;;;
2019/06/30 07:34:29;;;;;;;5.2;2.3;;;;;;;41.67;20.46387;940.3382;;;;
2019/06/30 07:36:58;;;;;;;4.3;2.3;;;;;;;42.91;17.9541;940.3008;;;;
2019/06/30 07:39:24;;;;;;;6;2.4;;;;;;;42.77;18.59961;940.3256;;;;
2019/06/30 07:41:49;;;;;;;4.6;2.4;;;;;;;43.14;20.50488;940.2974;;;;
2019/06/30 07:44:20;;;;;;;4.5;2.4;;;;;;;43.35;17.54102;940.2992;;;;
2019/06/30 07:46:43;;;;;;;3.4;2.5;;;;;;;42.63;19.20605;940.2238;;;;
2019/06/30 07:49:04;;;;;;;4.9;2.5;;;;;;;41.39;18.55664;940.2678;;;;
2019/06/30 07:51:38;;;;;;;14.1;2.9;;;;;;;41.74;19.95313;940.2181;;;;
2019/06/30 07:54:00;;;;;;;5.9;2.7;;;;;;;41.53;20.48242;940.2285;;;;
2019/06/30 07:56:21;;;;;;;5.1;2.6;;;;;;;41.35;18.92188;940.2109;;;;
2019/06/30 07:58:55;;;;;;;5.8;2.5;;;;;;;42.01;17.95605;940.2319;;;;
2019/06/30 08:01:10;;;;;;;4.8;2.7;;;;;;;41.27;22.13477;940.2008;;;;
2019/06/30 08:03:41;;;;;;;4.7;2.5;;;;;;;42.11;22.3584;940.182;;;;
2019/06/30 08:06:00;;;;;;;3.3;2.3;;;;;;;42.21;20.56152;940.1828;;;;
2019/06/30 08:08:24;;;;;;;5.9;2.5;;;;;;;42.8;19.11621;940.198;;;;
2019/06/30 08:10:50;;;;;;;5.5;2.4;;;;;;;42.74;19.62793;940.1464;;;;
2019/06/30 08:13:15;;;;;;;3.6;2.4;;;;;;;43.2;19.16895;940.1857;;;;
2019/06/30 08:15:40;;;;;;;8.8;2.3;;;;;;;43.64;18.00684;940.0952;;;;
2019/06/30 08:18:07;;;;;;;2.8;2.2;;;;;;;44.03;17.50488;940.137;;;;
2019/06/30 08:20:31;;;;;;;3.6;2.2;;;;;;;43.61;17.8584;940.1368;;;;
2019/06/30 08:23:00;;;;;;;4.5;2.4;;;;;;;43.6;17.08398;940.1577;;;;
2019/06/30 08:25:24;;;;;;;4.2;2.2;;;;;;;43.46;18.55273;940.1852;;;;
2019/06/30 08:27:48;;;;;;;5.2;2.5;;;;;;;42.88;19.14355;940.1314;;;;
2019/06/30 08:30:13;;;;;;;5.8;2.4;;;;;;;42.6;20.19922;940.1234;;;;
2019/06/30 08:32:40;;;;;;;3.8;2.5;;;;;;;42.42;19.45605;940.1354;;;;
2019/06/30 08:35:09;;;;;;;19.9;3;;;;;;;41.81;22.51563;940.0747;;;;
2019/06/30 08:37:29;;;;;;;8.5;2.7;;;;;;;41.33;21.45215;940.0844;;;;
2019/06/30 08:40:02;;;;;;;3.9;2.3;;;;;;;42.55;18.46777;940.0801;;;;
2019/06/30 08:42:22;;;;;;;5.5;2.5;;;;;;;43.11;19.16504;940.1243;;;;
2019/06/30 08:44:58;;;;;;;5.4;2.4;;;;;;;42.86;20.49219;940.0924;;;;
2019/06/30 08:47:20;;;;;;;4.8;2.2;;;;;;;43.32;18.40039;940.0552;;;;
2019/06/30 08:49:41;;;;;;;5.6;2.4;;;;;;;43.13;18.42969;940.094;;;;
2019/06/30 08:52:07;;;;;;;4;2.3;;;;;;;43.5;18.32129;940.0366;;;;
2019/06/30 08:54:30;;;;;;;3.2;2.4;;;;;;;42.87;19.90332;940.0946;;;;
2019/06/30 08:56:58;;;;;;;4.5;2.4;;;;;;;42.42;20.92676;940.0606;;;;
2019/06/30 08:59:26;;;;;;;3.2;2.2;;;;;;;41.69;18.51953;939.9796;;;;
2019/06/30 09:01:46;;;;;;;3.7;2.3;;;;;;;41.55;21.75684;939.9652;;;;
2019/06/30 09:04:14;;;;;;;6.7;2.6;;;;;;;40.8;23.52832;940.0311;;;;
2019/06/30 09:06:38;;;;;;;7.3;2.4;;;;;;;41.13;23.08105;939.9913;;;;
2019/06/30 09:09:07;;;;;;;11.8;2.9;;;;;;;40.43;25.14648;939.98;;;;
2019/06/30 09:11:33;;;;;;;8.4;2.4;;;;;;;40.23;21.01074;939.9608;;;;
2019/06/30 09:14:04;;;;;;;3.2;2.4;;;;;;;40.08;21.28418;939.9534;;;;
2019/06/30 09:16:40;;;;;;;16.6;3.1;;;;;;;39.88;22.08008;939.8884;;;;
2019/06/30 09:19:02;;;;;;;13;2.5;;;;;;;39.18;22.66699;939.8794;;;;
2019/06/30 09:21:24;;;;;;;5.7;2.6;;;;;;;39.08;22.49219;939.8947;;;;
2019/06/30 09:23:48;;;;;;;4.4;2.4;;;;;;;38.84;24.63281;939.8477;;;;
2019/06/30 09:26:18;;;;;;;5.4;2.5;;;;;;;38.53;25.0791;939.8174;;;;
2019/06/30 09:28:39;;;;;;;4.8;2.4;;;;;;;38.13;25.94434;939.7842;;;;
2019/06/30 09:31:04;;;;;;;3.8;2.4;;;;;;;38.01;27.6123;939.7784;;;;
2019/06/30 09:33:28;;;;;;;4.4;2.5;;;;;;;38.3;23.15918;939.7863;;;;
2019/06/30 09:35:56;;;;;;;5;2.3;;;;;;;38.14;23.29688;939.72;;;;
2019/06/30 09:38:19;;;;;;;4.1;2.4;;;;;;;38;21.83203;939.704;;;;
2019/06/30 09:40:47;;;;;;;3;2.2;;;;;;;38.14;23.06641;939.7106;;;;
2019/06/30 09:43:17;;;;;;;7.4;2.4;;;;;;;38.1;25.71094;939.6934;;;;
2019/06/30 09:45:41;;;;;;;4.7;2.3;;;;;;;37.9;23.56348;939.69;;;;
2019/06/30 09:48:07;;;;;;;5.9;2.2;;;;;;;37.76;23.14355;939.678;;;;
2019/06/30 09:50:32;;;;;;;5;2.4;;;;;;;37.57;24.80859;939.6764;;;;
2019/06/30 09:52:56;;;;;;;3.6;2.1;;;;;;;37.72;24.20996;939.699;;;;
2019/06/30 09:55:24;;;;;;;5.5;2.5;;;;;;;37.45;25.1416;939.6479;;;;
2019/06/30 09:57:53;;;;;;;3.8;2.6;;;;;;;37.44;28.26953;939.5563;;;;
2019/06/30 10:00:24;;;;;;;4.1;2.3;;;;;;;37.58;26.61621;939.5591;;;;
2019/06/30 10:02:47;;;;;;;3.4;2.3;;;;;;;37.71;25.28906;939.5955;;;;
2019/06/30 10:08:22;;;;;;;6.2;2.4;;;;;;;37.64;24.31445;939.5653;;;;
2019/06/30 10:10:47;;;;;;;4.3;2.2;;;;;;;37.7;24.39063;939.5;;;;
2019/06/30 10:13:12;;;;;;;3.4;2.5;;;;;;;37.74;24.45313;939.5801;;;;
2019/06/30 10:15:52;;;;;;;6.2;2.4;;;;;;;37.77;24.8916;939.6005;;;;
2019/06/30 10:18:03;;;;;;;5.2;2.5;;;;;;;37.9;23.23633;939.5687;;;;
2019/06/30 10:20:28;;;;;;;4.3;2.5;;;;;;;37.8;24.85742;939.5237;;;;
2019/06/30 10:23:00;;;;;;;3.1;2.5;;;;;;;37.82;24.11719;939.4714;;;;
2019/06/30 10:25:21;;;;;;;3.2;2.4;;;;;;;37.74;25.16992;939.4964;;;;
2019/06/30 10:27:43;;;;;;;5.3;2.7;;;;;;;37.36;25.94922;939.3817;;;;
2019/06/30 10:30:09;;;;;;;5.1;2.7;;;;;;;37.22;26.70508;939.4542;;;;
2019/06/30 10:32:33;;;;;;;5.5;3;;;;;;;37.21;27.28613;939.4918;;;;
2019/06/30 10:34:58;;;;;;;7.3;2.9;;;;;;;37.02;27.65039;939.4847;;;;
2019/06/30 10:37:24;;;;;;;5.5;2.8;;;;;;;36.88;27.25391;939.4303;;;;
2019/06/30 10:39:50;;;;;;;7.2;2.9;;;;;;;36.76;26.02344;939.4581;;;;
2019/06/30 10:42:14;;;;;;;4.4;3.1;;;;;;;36.68;25.62012;939.4601;;;;
2019/06/30 10:44:41;;;;;;;7.6;3.1;;;;;;;36.57;27.61133;939.4202;;;;
2019/06/30 10:47:08;;;;;;;6.5;3;;;;;;;36.61;28.37598;939.4338;;;;
2019/06/30 10:49:35;;;;;;;6.7;3.2;;;;;;;36.17;29.19531;939.3975;;;;
2019/06/30 10:51:57;;;;;;;7.4;3.2;;;;;;;36.18;29.13672;939.4382;;;;
2019/06/30 10:54:23;;;;;;;7.9;3.1;;;;;;;36.25;27.39844;939.4514;;;;
2019/06/30 10:56:47;;;;;;;3.4;2.8;;;;;;;36.47;26.29785;939.4041;;;;
2019/06/30 10:59:13;;;;;;;6.1;3.4;;;;;;;36.53;28.49219;939.4106;;;;
2019/06/30 11:01:46;;;;;;;7.2;3.3;;;;;;;36.6;28.25391;939.3438;;;;
2019/06/30 11:04:08;;;;;;;7;3.3;;;;;;;36.53;28.95215;939.3575;;;;
2019/06/30 11:06:35;;;;;;;4.2;3.3;;;;;;;36.48;27.49707;939.3893;;;;
2019/06/30 11:08:59;;;;;;;5;3.4;;;;;;;36.71;28.43164;939.3158;;;;
2019/06/30 11:11:26;;;;;;;5.2;3.3;;;;;;;36.8;27.58789;939.2952;;;;
2019/06/30 11:13:50;;;;;;;7.5;3.4;;;;;;;36.77;27.21094;939.3183;;;;
2019/06/30 11:16:21;;;;;;;7.4;3.2;;;;;;;36.69;27.49707;939.2711;;;;
2019/06/30 11:18:40;;;;;;;6;3.4;;;;;;;36.59;28.55664;939.275;;;;
2019/06/30 11:21:08;;;;;;;7.2;3.8;;;;;;;36.61;30.27734;939.2346;;;;
2019/06/30 11:23:40;;;;;;;8.3;3.5;;;;;;;36.51;27.8252;939.2145;;;;
2019/06/30 11:26:03;;;;;;;4.7;3.6;;;;;;;36.35;29.30371;939.2197;;;;
2019/06/30 11:28:31;;;;;;;7.8;3.7;;;;;;;36.47;29.72363;939.2488;;;;
2019/06/30 11:30:57;;;;;;;4.9;3.6;;;;;;;36.56;29.47559;939.1508;;;;
2019/06/30 11:33:18;;;;;;;6.7;4.1;;;;;;;36.57;31.03711;939.1719;;;;
2019/06/30 11:35:44;;;;;;;7.4;4;;;;;;;36.56;29.41406;939.1562;;;;
2019/06/30 11:38:13;;;;;;;8.9;4.3;;;;;;;36.38;28.82129;939.2324;;;;
2019/06/30 11:40:36;;;;;;;7;4.5;;;;;;;35.91;32.15234;939.0981;;;;
2019/06/30 11:42:59;;;;;;;9.5;4.8;;;;;;;36.07;31.31641;939.1385;;;;
2019/06/30 11:45:25;;;;;;;8.2;4.7;;;;;;;36.14;31.0918;939.1155;;;;
2019/06/30 11:47:50;;;;;;;8.2;4.3;;;;;;;36.07;31.3291;939.0402;;;;
2019/06/30 11:50:14;;;;;;;34.1;5.2;;;;;;;36.21;32.22168;939.0262;;;;
2019/06/30 11:52:41;;;;;;;9.7;4.8;;;;;;;36.03;31.75;939.0608;;;;
2019/06/30 11:55:09;;;;;;;7;5.1;;;;;;;36.03;33.58789;939.0397;;;;
2019/06/30 11:57:30;;;;;;;7.1;4.5;;;;;;;36.36;31.34961;939.0269;;;;
2019/06/30 11:59:56;;;;;;;8;4.7;;;;;;;36.25;31.05176;939.0174;;;;
2019/06/30 12:02:23;;;;;;;12.1;5.4;;;;;;;36.39;31.14551;939.0489;;;;
2019/06/30 12:04:47;;;;;;;9.1;5.1;;;;;;;36.01;31.78418;939.0028;;;;
2019/06/30 12:07:15;;;;;;;11.3;5.3;;;;;;;36.04;32.19727;939.0686;;;;
2019/06/30 12:09:47;;;;;;;8.2;5.2;;;;;;;36.3;31.42969;939.0176;;;;
2019/06/30 12:12:09;;;;;;;9.5;5.2;;;;;;;36.46;30.76367;938.9902;;;;
2019/06/30 12:14:33;;;;;;;11.4;5.7;;;;;;;36.35;33.05566;938.9847;;;;
2019/06/30 12:17:05;;;;;;;7.6;5.7;;;;;;;36.32;31.41895;938.9963;;;;
2019/06/30 12:19:29;;;;;;;8.9;5.4;;;;;;;36.35;31.89258;938.9995;;;;
2019/06/30 12:21:51;;;;;;;8.9;5.4;;;;;;;36.1;33.36328;938.9998;;;;
2019/06/30 12:24:19;;;;;;;8.6;5.9;;;;;;;36.2;31.55566;939.0106;;;;
2019/06/30 12:26:46;;;;;;;11.8;5.2;;;;;;;35.96;34.16309;938.9285;;;;
2019/06/30 12:29:07;;;;;;;12;5.8;;;;;;;36.1;34.05273;938.9772;;;;
2019/06/30 12:31:36;;;;;;;10.1;6;;;;;;;36.11;34.37988;938.9756;;;;
2019/06/30 12:34:04;;;;;;;10.6;5.7;;;;;;;36.01;33.41699;939.0255;;;;
2019/06/30 12:36:24;;;;;;;10.4;5.6;;;;;;;36.09;33;938.9959;;;;
2019/06/30 12:38:48;;;;;;;8.8;5.9;;;;;;;35.91;32.05566;939.0505;;;;
2019/06/30 12:41:14;;;;;;;9.9;5.9;;;;;;;35.93;31.58594;939.0631;;;;
2019/06/30 12:43:42;;;;;;;15.6;6;;;;;;;35.98;34.05566;939.0144;;;;
2019/06/30 12:46:06;;;;;;;10.5;6.1;;;;;;;35.93;34.18555;939.0273;;;;
2019/06/30 12:48:29;;;;;;;8.4;6.2;;;;;;;36.1;33.49609;939.0661;;;;
2019/06/30 12:50:54;;;;;;;10.4;6;;;;;;;36.12;33.57031;939.0125;;;;
2019/06/30 12:53:25;;;;;;;9.3;6;;;;;;;36.17;31.65039;939.0298;;;;
2019/06/30 12:55:48;;;;;;;8.6;5.6;;;;;;;36.02;33.70801;939.024;;;;
2019/06/30 12:58:09;;;;;;;10.3;6;;;;;;;35.7;34.15527;938.9899;;;;
2019/06/30 13:00:41;;;;;;;9.8;6.3;;;;;;;35.42;33.53125;939.0073;;;;
2019/06/30 13:03:05;;;;;;;12.8;5.9;;;;;;;35.5;33.97168;939.0098;;;;
2019/06/30 13:05:30;;;;;;;15.4;6.3;;;;;;;35.48;33.78906;938.9559;;;;
2019/06/30 13:07:58;;;;;;;11.8;6.1;;;;;;;35.46;31.97559;938.9128;;;;
2019/06/30 13:10:21;;;;;;;11.1;6.1;;;;;;;35.44;32.33789;938.9288;;;;
2019/06/30 13:12:48;;;;;;;10.7;5.9;;;;;;;35.43;32.93945;938.9317;;;;
2019/06/30 13:15:14;;;;;;;8.6;5.8;;;;;;;35.6;33.41113;938.9506;;;;
2019/06/30 13:17:40;;;;;;;12.8;5.8;;;;;;;35.72;34.31445;938.9853;;;;
2019/06/30 13:20:04;;;;;;;15.2;6.2;;;;;;;35.73;33.33594;938.895;;;;
2019/06/30 13:22:33;;;;;;;10;5.8;;;;;;;35.65;32.29199;938.9537;;;;
2019/06/30 13:24:56;;;;;;;8.9;5.9;;;;;;;35.66;33.58496;938.9655;;;;
2019/06/30 13:27:24;;;;;;;10.5;5.8;;;;;;;35.61;33.03711;938.9451;;;;
2019/06/30 13:33:10;;;;;;;10;5.9;;;;;;;35.27;34.46094;939.0118;;;;
2019/06/30 13:35:24;;;;;;;10.7;6.3;;;;;;;35.58;34.14648;938.9856;;;;
2019/06/30 13:37:51;;;;;;;7.7;5.8;;;;;;;35.51;35.16797;938.9913;;;;
2019/06/30 13:40:14;;;;;;;8.5;5.9;;;;;;;35.62;34.93457;938.9211;;;;
2019/06/30 13:42:41;;;;;;;9;5.8;;;;;;;35.51;34.92676;938.9063;;;;
2019/06/30 13:45:03;;;;;;;11;6.2;;;;;;;35.61;33.89453;938.8922;;;;
2019/06/30 13:47:28;;;;;;;11.1;6;;;;;;;35.73;32.85254;938.8061;;;;
2019/06/30 13:49:56;;;;;;;10.6;6;;;;;;;35.82;33.93555;938.8543;;;;
2019/06/30 13:52:24;;;;;;;12.6;6;;;;;;;35.72;32.87695;938.8076;;;;
2019/06/30 13:54:51;;;;;;;8.2;5.8;;;;;;;35.77;31.75586;938.8157;;;;
2019/06/30 13:57:16;;;;;;;9.9;6;;;;;;;35.47;32.94336;938.8872;;;;
2019/06/30 13:59:39;;;;;;;8.2;5.8;;;;;;;35.09;34.10938;938.8695;;;;
2019/06/30 14:02:13;;;;;;;8.3;5.8;;;;;;;34.92;34.29004;938.8091;;;;
2019/06/30 14:04:34;;;;;;;10.4;6.1;;;;;;;34.88;35.77148;938.8375;;;;
2019/06/30 14:06:59;;;;;;;9.4;5.8;;;;;;;34.74;35.03613;938.8782;;;;
2019/06/30 14:09:21;;;;;;;9.7;5.8;;;;;;;34.71;34.2627;938.9146;;;;
2019/06/30 14:11:48;;;;;;;13.9;6.4;;;;;;;34.57;33.6377;938.9102;;;;
2019/06/30 14:14:17;;;;;;;13.5;6;;;;;;;34.37;35.13965;938.8833;;;;
2019/06/30 14:16:38;;;;;;;10.4;6.4;;;;;;;34.55;34.69629;938.9357;;;;
2019/06/30 14:19:03;;;;;;;8.7;6.2;;;;;;;34.87;33.75586;938.9371;;;;
2019/06/30 14:21:27;;;;;;;8;5.9;;;;;;;34.98;34.19922;938.9773;;;;
2019/06/30 14:23:57;;;;;;;14.1;6.2;;;;;;;35.03;34.6123;938.9551;;;;
2019/06/30 14:26:22;;;;;;;9.8;6.4;;;;;;;35.13;32.19336;938.9455;;;;
2019/06/30 14:28:51;;;;;;;9.6;6.3;;;;;;;35.08;32.49219;939.0128;;;;